sensor_id;sensor_type;location;lat;lon;timestamp;P1;durP1;ratioP1;P2;durP2;ratioP2
73150;SDS011;61354;50.758;6.106;2023-02-28T00:00:24;3.90;;;2.50;;
73150;SDS011;61354;50.758;6.106;2023-02-28T00:02:50;9.32;;;3.10;;
73150;SDS011;61354;50.758;6.106;2023-02-28T00:05:17;4.13;;;2.67;;
73150;SDS011;61354;50.758;6.106;2023-02-28T00:07:45;6.22;;;2.80;;
73150;SDS011;61354;50.758;6.106;2023-02-28T00:10:12;4.47;;;2.50;;
73150;SDS011;61354;50.758;6.106;2023-02-28T00:12:39;6.60;;;3.13;;
73150;SDS011;61354;50.758;6.106;2023-02-28T00:15:05;5.55;;;2.90;;
73150;SDS011;61354;50.758;6.106;2023-02-28T00:17:32;4.82;;;2.88;;
73150;SDS011;61354;50.758;6.106;2023-02-28T00:19:58;4.65;;;2.72;;
73150;SDS011;61354;50.758;6.106;2023-02-28T00:22:35;5.47;;;2.70;;
73150;SDS011;61354;50.758;6.106;2023-02-28T00:25:02;5.75;;;2.67;;
73150;SDS011;61354;50.758;6.106;2023-02-28T00:27:29;6.15;;;2.70;;
73150;SDS011;61354;50.758;6.106;2023-02-28T00:29:55;5.57;;;2.60;;
73150;SDS011;61354;50.758;6.106;2023-02-28T00:32:21;4.57;;;2.42;;
73150;SDS011;61354;50.758;6.106;2023-02-28T00:34:46;5.07;;;2.90;;
73150;SDS011;61354;50.758;6.106;2023-02-28T00:37:12;4.47;;;2.38;;
73150;SDS011;61354;50.758;6.106;2023-02-28T00:39:38;6.93;;;2.78;;
73150;SDS011;61354;50.758;6.106;2023-02-28T00:42:05;5.20;;;2.53;;
73150;SDS011;61354;50.758;6.106;2023-02-28T00:44:31;3.90;;;2.83;;
73150;SDS011;61354;50.758;6.106;2023-02-28T00:46:57;5.40;;;2.60;;
73150;SDS011;61354;50.758;6.106;2023-02-28T00:49:24;4.95;;;2.88;;
73150;SDS011;61354;50.758;6.106;2023-02-28T00:51:51;6.65;;;2.90;;
73150;SDS011;61354;50.758;6.106;2023-02-28T00:54:17;3.78;;;2.55;;
73150;SDS011;61354;50.758;6.106;2023-02-28T00:56:43;3.78;;;2.45;;
73150;SDS011;61354;50.758;6.106;2023-02-28T00:59:11;4.20;;;2.45;;
73150;SDS011;61354;50.758;6.106;2023-02-28T01:01:41;4.72;;;2.30;;
73150;SDS011;61354;50.758;6.106;2023-02-28T01:04:07;5.45;;;2.78;;
73150;SDS011;61354;50.758;6.106;2023-02-28T01:06:33;3.67;;;2.25;;
73150;SDS011;61354;50.758;6.106;2023-02-28T01:08:59;4.45;;;2.13;;
73150;SDS011;61354;50.758;6.106;2023-02-28T01:11:25;6.55;;;2.45;;
73150;SDS011;61354;50.758;6.106;2023-02-28T01:13:53;6.13;;;2.47;;
73150;SDS011;61354;50.758;6.106;2023-02-28T01:16:19;4.25;;;2.42;;
73150;SDS011;61354;50.758;6.106;2023-02-28T01:18:44;5.13;;;2.20;;
73150;SDS011;61354;50.758;6.106;2023-02-28T01:21:11;4.53;;;2.20;;
73150;SDS011;61354;50.758;6.106;2023-02-28T01:23:40;5.32;;;2.40;;
73150;SDS011;61354;50.758;6.106;2023-02-28T01:26:07;6.30;;;2.47;;
73150;SDS011;61354;50.758;6.106;2023-02-28T01:28:37;4.03;;;2.30;;
73150;SDS011;61354;50.758;6.106;2023-02-28T01:31:02;4.57;;;2.30;;
73150;SDS011;61354;50.758;6.106;2023-02-28T01:33:28;3.55;;;2.25;;
73150;SDS011;61354;50.758;6.106;2023-02-28T01:36:00;3.28;;;1.90;;
73150;SDS011;61354;50.758;6.106;2023-02-28T01:38:45;6.43;;;2.65;;
73150;SDS011;61354;50.758;6.106;2023-02-28T01:41:19;5.30;;;2.03;;
73150;SDS011;61354;50.758;6.106;2023-02-28T01:46:14;7.70;;;2.88;;
73150;SDS011;61354;50.758;6.106;2023-02-28T01:48:46;6.03;;;2.30;;
73150;SDS011;61354;50.758;6.106;2023-02-28T01:51:17;3.47;;;1.98;;
73150;SDS011;61354;50.758;6.106;2023-02-28T01:53:53;3.03;;;1.83;;
73150;SDS011;61354;50.758;6.106;2023-02-28T01:56:25;4.88;;;2.03;;
73150;SDS011;61354;50.758;6.106;2023-02-28T01:58:54;4.63;;;2.50;;
73150;SDS011;61354;50.758;6.106;2023-02-28T02:01:21;4.70;;;2.03;;
73150;SDS011;61354;50.758;6.106;2023-02-28T02:03:49;3.92;;;2.15;;
73150;SDS011;61354;50.758;6.106;2023-02-28T02:06:30;4.95;;;2.08;;
73150;SDS011;61354;50.758;6.106;2023-02-28T02:09:01;3.33;;;1.77;;
73150;SDS011;61354;50.758;6.106;2023-02-28T02:11:27;4.20;;;2.30;;
73150;SDS011;61354;50.758;6.106;2023-02-28T02:14:10;5.80;;;2.20;;
73150;SDS011;61354;50.758;6.106;2023-02-28T02:27:22;4.15;;;2.13;;
73150;SDS011;61354;50.758;6.106;2023-02-28T02:40:38;4.90;;;2.72;;
73150;SDS011;61354;50.758;6.106;2023-02-28T02:43:39;3.55;;;2.30;;
73150;SDS011;61354;50.758;6.106;2023-02-28T02:46:16;5.93;;;2.38;;
73150;SDS011;61354;50.758;6.106;2023-02-28T02:51:20;4.13;;;2.22;;
73150;SDS011;61354;50.758;6.106;2023-02-28T02:56:19;3.65;;;2.17;;
73150;SDS011;61354;50.758;6.106;2023-02-28T02:58:48;5.57;;;2.33;;
73150;SDS011;61354;50.758;6.106;2023-02-28T03:01:20;6.47;;;2.53;;
73150;SDS011;61354;50.758;6.106;2023-02-28T03:03:57;3.63;;;2.10;;
73150;SDS011;61354;50.758;6.106;2023-02-28T03:06:25;4.35;;;2.45;;
73150;SDS011;61354;50.758;6.106;2023-02-28T03:08:51;4.32;;;2.40;;
73150;SDS011;61354;50.758;6.106;2023-02-28T03:11:16;3.55;;;2.22;;
73150;SDS011;61354;50.758;6.106;2023-02-28T03:19:01;4.20;;;2.22;;
73150;SDS011;61354;50.758;6.106;2023-02-28T03:24:03;3.72;;;1.92;;
73150;SDS011;61354;50.758;6.106;2023-02-28T03:26:52;5.30;;;2.08;;
73150;SDS011;61354;50.758;6.106;2023-02-28T03:29:31;4.78;;;2.20;;
73150;SDS011;61354;50.758;6.106;2023-02-28T03:34:51;4.07;;;2.35;;
73150;SDS011;61354;50.758;6.106;2023-02-28T03:37:24;4.13;;;2.25;;
73150;SDS011;61354;50.758;6.106;2023-02-28T03:40:01;3.40;;;2.10;;
73150;SDS011;61354;50.758;6.106;2023-02-28T03:42:32;3.60;;;2.30;;
73150;SDS011;61354;50.758;6.106;2023-02-28T03:45:02;4.57;;;2.28;;
73150;SDS011;61354;50.758;6.106;2023-02-28T03:50:22;5.00;;;2.20;;
73150;SDS011;61354;50.758;6.106;2023-02-28T03:53:02;4.70;;;2.00;;
73150;SDS011;61354;50.758;6.106;2023-02-28T03:55:37;3.85;;;2.05;;
73150;SDS011;61354;50.758;6.106;2023-02-28T04:01:07;2.90;;;2.00;;
73150;SDS011;61354;50.758;6.106;2023-02-28T04:03:38;5.63;;;2.13;;
73150;SDS011;61354;50.758;6.106;2023-02-28T04:06:05;3.92;;;2.10;;
73150;SDS011;61354;50.758;6.106;2023-02-28T04:08:40;3.85;;;2.20;;
73150;SDS011;61354;50.758;6.106;2023-02-28T04:11:16;4.28;;;2.22;;
73150;SDS011;61354;50.758;6.106;2023-02-28T04:13:48;3.85;;;2.28;;
73150;SDS011;61354;50.758;6.106;2023-02-28T04:16:14;4.78;;;2.38;;
73150;SDS011;61354;50.758;6.106;2023-02-28T04:18:40;4.32;;;2.42;;
73150;SDS011;61354;50.758;6.106;2023-02-28T04:21:08;4.50;;;2.40;;
73150;SDS011;61354;50.758;6.106;2023-02-28T04:23:34;3.38;;;2.00;;
73150;SDS011;61354;50.758;6.106;2023-02-28T04:25:59;5.28;;;2.47;;
73150;SDS011;61354;50.758;6.106;2023-02-28T04:28:25;4.38;;;2.22;;
73150;SDS011;61354;50.758;6.106;2023-02-28T04:31:01;4.03;;;2.13;;
73150;SDS011;61354;50.758;6.106;2023-02-28T04:33:30;5.07;;;2.55;;
73150;SDS011;61354;50.758;6.106;2023-02-28T04:36:04;6.45;;;2.20;;
73150;SDS011;61354;50.758;6.106;2023-02-28T04:38:33;3.92;;;1.77;;
73150;SDS011;61354;50.758;6.106;2023-02-28T04:41:00;4.93;;;2.60;;
73150;SDS011;61354;50.758;6.106;2023-02-28T04:43:27;5.28;;;2.45;;
73150;SDS011;61354;50.758;6.106;2023-02-28T04:45:53;4.95;;;2.00;;
73150;SDS011;61354;50.758;6.106;2023-02-28T04:50:51;4.90;;;2.10;;
73150;SDS011;61354;50.758;6.106;2023-02-28T04:53:17;4.43;;;2.30;;
73150;SDS011;61354;50.758;6.106;2023-02-28T04:55:43;4.88;;;2.53;;
73150;SDS011;61354;50.758;6.106;2023-02-28T04:58:09;4.70;;;2.40;;
73150;SDS011;61354;50.758;6.106;2023-02-28T05:00:35;5.22;;;2.42;;
73150;SDS011;61354;50.758;6.106;2023-02-28T05:03:01;2.92;;;2.20;;
73150;SDS011;61354;50.758;6.106;2023-02-28T05:05:27;4.72;;;2.75;;
73150;SDS011;61354;50.758;6.106;2023-02-28T05:07:52;5.00;;;2.53;;
73150;SDS011;61354;50.758;6.106;2023-02-28T05:10:18;6.70;;;2.38;;
73150;SDS011;61354;50.758;6.106;2023-02-28T05:12:44;4.35;;;2.53;;
73150;SDS011;61354;50.758;6.106;2023-02-28T05:15:14;5.18;;;2.90;;
73150;SDS011;61354;50.758;6.106;2023-02-28T05:17:40;4.30;;;2.63;;
73150;SDS011;61354;50.758;6.106;2023-02-28T05:20:06;5.07;;;2.90;;
73150;SDS011;61354;50.758;6.106;2023-02-28T05:22:38;4.65;;;2.30;;
73150;SDS011;61354;50.758;6.106;2023-02-28T05:25:04;5.13;;;2.45;;
73150;SDS011;61354;50.758;6.106;2023-02-28T05:27:30;5.68;;;2.78;;
73150;SDS011;61354;50.758;6.106;2023-02-28T05:29:56;9.27;;;2.88;;
73150;SDS011;61354;50.758;6.106;2023-02-28T05:32:22;3.88;;;2.33;;
73150;SDS011;61354;50.758;6.106;2023-02-28T05:34:48;5.15;;;2.35;;
73150;SDS011;61354;50.758;6.106;2023-02-28T05:37:13;5.25;;;2.88;;
73150;SDS011;61354;50.758;6.106;2023-02-28T05:39:41;5.60;;;2.55;;
73150;SDS011;61354;50.758;6.106;2023-02-28T05:42:06;4.18;;;2.45;;
73150;SDS011;61354;50.758;6.106;2023-02-28T05:44:32;4.57;;;2.47;;
73150;SDS011;61354;50.758;6.106;2023-02-28T05:46:58;5.05;;;2.72;;
73150;SDS011;61354;50.758;6.106;2023-02-28T05:49:24;4.80;;;2.63;;
73150;SDS011;61354;50.758;6.106;2023-02-28T05:51:49;6.10;;;2.40;;
73150;SDS011;61354;50.758;6.106;2023-02-28T05:54:15;4.50;;;2.40;;
73150;SDS011;61354;50.758;6.106;2023-02-28T05:56:41;6.13;;;2.88;;
73150;SDS011;61354;50.758;6.106;2023-02-28T05:59:09;4.40;;;2.83;;
73150;SDS011;61354;50.758;6.106;2023-02-28T06:04:04;4.68;;;2.72;;
73150;SDS011;61354;50.758;6.106;2023-02-28T06:06:31;5.32;;;2.60;;
73150;SDS011;61354;50.758;6.106;2023-02-28T06:08:59;3.65;;;2.08;;
73150;SDS011;61354;50.758;6.106;2023-02-28T06:11:26;4.00;;;2.63;;
73150;SDS011;61354;50.758;6.106;2023-02-28T06:13:53;4.07;;;2.83;;
73150;SDS011;61354;50.758;6.106;2023-02-28T06:16:20;4.93;;;2.88;;
73150;SDS011;61354;50.758;6.106;2023-02-28T06:18:46;4.80;;;2.60;;
73150;SDS011;61354;50.758;6.106;2023-02-28T06:21:12;3.63;;;2.45;;
73150;SDS011;61354;50.758;6.106;2023-02-28T06:23:38;5.05;;;2.47;;
73150;SDS011;61354;50.758;6.106;2023-02-28T06:26:04;4.00;;;2.30;;
73150;SDS011;61354;50.758;6.106;2023-02-28T06:28:30;8.30;;;2.63;;
73150;SDS011;61354;50.758;6.106;2023-02-28T06:30:56;5.32;;;3.00;;
73150;SDS011;61354;50.758;6.106;2023-02-28T06:33:21;6.05;;;3.25;;
73150;SDS011;61354;50.758;6.106;2023-02-28T06:35:49;4.85;;;2.40;;
73150;SDS011;61354;50.758;6.106;2023-02-28T06:38:16;7.53;;;3.17;;
73150;SDS011;61354;50.758;6.106;2023-02-28T06:40:43;5.20;;;2.72;;
73150;SDS011;61354;50.758;6.106;2023-02-28T06:43:09;5.45;;;3.60;;
73150;SDS011;61354;50.758;6.106;2023-02-28T06:45:41;6.57;;;3.45;;
73150;SDS011;61354;50.758;6.106;2023-02-28T06:48:09;7.10;;;3.33;;
73150;SDS011;61354;50.758;6.106;2023-02-28T06:50:35;6.18;;;3.30;;
73150;SDS011;61354;50.758;6.106;2023-02-28T06:53:01;6.80;;;3.08;;
73150;SDS011;61354;50.758;6.106;2023-02-28T06:55:27;6.03;;;3.15;;
73150;SDS011;61354;50.758;6.106;2023-02-28T06:57:52;4.85;;;3.10;;
73150;SDS011;61354;50.758;6.106;2023-02-28T07:00:20;5.85;;;3.00;;
73150;SDS011;61354;50.758;6.106;2023-02-28T07:02:46;6.75;;;3.22;;
73150;SDS011;61354;50.758;6.106;2023-02-28T07:05:12;5.18;;;2.88;;
73150;SDS011;61354;50.758;6.106;2023-02-28T07:07:38;8.88;;;3.28;;
73150;SDS011;61354;50.758;6.106;2023-02-28T07:10:09;4.97;;;3.10;;
73150;SDS011;61354;50.758;6.106;2023-02-28T07:12:36;6.72;;;3.42;;
73150;SDS011;61354;50.758;6.106;2023-02-28T07:15:02;6.25;;;3.10;;
73150;SDS011;61354;50.758;6.106;2023-02-28T07:17:29;7.22;;;2.97;;
73150;SDS011;61354;50.758;6.106;2023-02-28T07:19:55;8.00;;;4.13;;
73150;SDS011;61354;50.758;6.106;2023-02-28T07:22:21;8.07;;;3.42;;
73150;SDS011;61354;50.758;6.106;2023-02-28T07:24:47;8.50;;;3.47;;
73150;SDS011;61354;50.758;6.106;2023-02-28T07:27:12;5.88;;;3.17;;
73150;SDS011;61354;50.758;6.106;2023-02-28T07:29:51;6.20;;;2.72;;
73150;SDS011;61354;50.758;6.106;2023-02-28T07:32:17;5.07;;;2.80;;
73150;SDS011;61354;50.758;6.106;2023-02-28T07:34:44;6.55;;;3.15;;
73150;SDS011;61354;50.758;6.106;2023-02-28T07:37:10;6.10;;;3.67;;
73150;SDS011;61354;50.758;6.106;2023-02-28T07:39:35;3.67;;;2.72;;
73150;SDS011;61354;50.758;6.106;2023-02-28T07:42:04;6.25;;;3.08;;
73150;SDS011;61354;50.758;6.106;2023-02-28T07:44:31;6.18;;;2.90;;
73150;SDS011;61354;50.758;6.106;2023-02-28T07:46:57;5.85;;;3.03;;
73150;SDS011;61354;50.758;6.106;2023-02-28T07:49:23;5.90;;;3.13;;
73150;SDS011;61354;50.758;6.106;2023-02-28T07:51:48;6.10;;;2.67;;
73150;SDS011;61354;50.758;6.106;2023-02-28T07:54:14;4.93;;;3.03;;
73150;SDS011;61354;50.758;6.106;2023-02-28T07:56:39;4.63;;;2.85;;
73150;SDS011;61354;50.758;6.106;2023-02-28T07:59:05;4.82;;;2.92;;
73150;SDS011;61354;50.758;6.106;2023-02-28T08:01:30;5.32;;;2.55;;
73150;SDS011;61354;50.758;6.106;2023-02-28T08:03:56;5.57;;;2.85;;
73150;SDS011;61354;50.758;6.106;2023-02-28T08:06:23;7.10;;;3.20;;
73150;SDS011;61354;50.758;6.106;2023-02-28T08:08:50;5.30;;;2.75;;
73150;SDS011;61354;50.758;6.106;2023-02-28T08:11:16;6.25;;;3.10;;
73150;SDS011;61354;50.758;6.106;2023-02-28T08:13:42;4.65;;;2.33;;
73150;SDS011;61354;50.758;6.106;2023-02-28T08:16:09;6.65;;;2.88;;
73150;SDS011;61354;50.758;6.106;2023-02-28T08:18:35;5.95;;;2.80;;
73150;SDS011;61354;50.758;6.106;2023-02-28T08:21:10;4.63;;;2.42;;
73150;SDS011;61354;50.758;6.106;2023-02-28T08:23:36;6.35;;;3.35;;
73150;SDS011;61354;50.758;6.106;2023-02-28T08:26:02;4.72;;;2.80;;
73150;SDS011;61354;50.758;6.106;2023-02-28T08:28:28;3.35;;;2.25;;
73150;SDS011;61354;50.758;6.106;2023-02-28T08:30:54;4.72;;;2.50;;
73150;SDS011;61354;50.758;6.106;2023-02-28T08:33:20;4.72;;;2.75;;
73150;SDS011;61354;50.758;6.106;2023-02-28T08:35:45;6.32;;;3.17;;
73150;SDS011;61354;50.758;6.106;2023-02-28T08:38:11;4.40;;;3.00;;
73150;SDS011;61354;50.758;6.106;2023-02-28T08:40:36;6.07;;;3.05;;
73150;SDS011;61354;50.758;6.106;2023-02-28T08:43:02;5.85;;;2.63;;
73150;SDS011;61354;50.758;6.106;2023-02-28T08:45:28;5.15;;;3.33;;
73150;SDS011;61354;50.758;6.106;2023-02-28T08:47:54;4.10;;;2.53;;
73150;SDS011;61354;50.758;6.106;2023-02-28T08:50:20;5.65;;;2.58;;
73150;SDS011;61354;50.758;6.106;2023-02-28T08:52:46;4.85;;;2.80;;
73150;SDS011;61354;50.758;6.106;2023-02-28T08:55:12;4.35;;;2.42;;
73150;SDS011;61354;50.758;6.106;2023-02-28T08:57:38;5.32;;;2.90;;
73150;SDS011;61354;50.758;6.106;2023-02-28T09:00:03;4.50;;;2.65;;
73150;SDS011;61354;50.758;6.106;2023-02-28T09:02:30;4.75;;;2.50;;
73150;SDS011;61354;50.758;6.106;2023-02-28T09:04:56;3.78;;;2.33;;
73150;SDS011;61354;50.758;6.106;2023-02-28T09:07:23;5.32;;;2.35;;
73150;SDS011;61354;50.758;6.106;2023-02-28T09:09:49;4.38;;;2.30;;
73150;SDS011;61354;50.758;6.106;2023-02-28T09:12:25;5.10;;;2.72;;
73150;SDS011;61354;50.758;6.106;2023-02-28T09:14:52;5.65;;;2.50;;
73150;SDS011;61354;50.758;6.106;2023-02-28T09:17:18;6.95;;;2.47;;
73150;SDS011;61354;50.758;6.106;2023-02-28T09:19:44;4.13;;;2.33;;
73150;SDS011;61354;50.758;6.106;2023-02-28T09:22:10;4.35;;;2.28;;
73150;SDS011;61354;50.758;6.106;2023-02-28T09:24:36;4.40;;;2.42;;
73150;SDS011;61354;50.758;6.106;2023-02-28T09:27:03;3.63;;;2.35;;
73150;SDS011;61354;50.758;6.106;2023-02-28T09:29:29;4.15;;;2.45;;
73150;SDS011;61354;50.758;6.106;2023-02-28T09:31:56;4.68;;;2.42;;
73150;SDS011;61354;50.758;6.106;2023-02-28T09:34:24;4.32;;;2.35;;
73150;SDS011;61354;50.758;6.106;2023-02-28T09:36:50;4.85;;;2.30;;
73150;SDS011;61354;50.758;6.106;2023-02-28T09:39:20;3.88;;;2.17;;
73150;SDS011;61354;50.758;6.106;2023-02-28T09:41:47;2.90;;;1.80;;
73150;SDS011;61354;50.758;6.106;2023-02-28T09:44:19;4.30;;;2.05;;
73150;SDS011;61354;50.758;6.106;2023-02-28T09:47:00;4.65;;;1.80;;
73150;SDS011;61354;50.758;6.106;2023-02-28T09:49:37;2.95;;;1.80;;
73150;SDS011;61354;50.758;6.106;2023-02-28T09:52:18;3.15;;;1.80;;
73150;SDS011;61354;50.758;6.106;2023-02-28T09:54:46;3.70;;;1.88;;
73150;SDS011;61354;50.758;6.106;2023-02-28T10:05:13;3.65;;;2.15;;
73150;SDS011;61354;50.758;6.106;2023-02-28T10:15:55;3.30;;;1.80;;
73150;SDS011;61354;50.758;6.106;2023-02-28T10:18:28;3.35;;;1.80;;
73150;SDS011;61354;50.758;6.106;2023-02-28T10:21:02;3.33;;;1.65;;
73150;SDS011;61354;50.758;6.106;2023-02-28T10:23:28;3.33;;;1.65;;
73150;SDS011;61354;50.758;6.106;2023-02-28T10:26:03;2.17;;;1.42;;
73150;SDS011;61354;50.758;6.106;2023-02-28T10:28:36;2.92;;;1.52;;
73150;SDS011;61354;50.758;6.106;2023-02-28T10:31:02;4.05;;;1.63;;
73150;SDS011;61354;50.758;6.106;2023-02-28T10:33:32;2.15;;;1.40;;
73150;SDS011;61354;50.758;6.106;2023-02-28T10:36:00;3.38;;;1.77;;
73150;SDS011;61354;50.758;6.106;2023-02-28T10:41:04;5.32;;;1.45;;
73150;SDS011;61354;50.758;6.106;2023-02-28T10:43:32;3.65;;;1.60;;
73150;SDS011;61354;50.758;6.106;2023-02-28T10:48:38;3.65;;;1.60;;
73150;SDS011;61354;50.758;6.106;2023-02-28T10:56:17;3.67;;;1.67;;
73150;SDS011;61354;50.758;6.106;2023-02-28T11:01:43;3.33;;;1.80;;
73150;SDS011;61354;50.758;6.106;2023-02-28T11:09:44;2.72;;;1.63;;
73150;SDS011;61354;50.758;6.106;2023-02-28T11:12:21;3.38;;;1.80;;
73150;SDS011;61354;50.758;6.106;2023-02-28T11:14:51;4.10;;;2.30;;
73150;SDS011;61354;50.758;6.106;2023-02-28T11:17:27;3.20;;;1.80;;
73150;SDS011;61354;50.758;6.106;2023-02-28T11:19:56;2.67;;;1.60;;
73150;SDS011;61354;50.758;6.106;2023-02-28T11:22:27;3.30;;;1.63;;
73150;SDS011;61354;50.758;6.106;2023-02-28T11:29:57;2.67;;;1.80;;
73150;SDS011;61354;50.758;6.106;2023-02-28T11:32:27;3.10;;;1.90;;
73150;SDS011;61354;50.758;6.106;2023-02-28T11:37:36;3.10;;;1.77;;
73150;SDS011;61354;50.758;6.106;2023-02-28T11:40:04;3.08;;;1.83;;
73150;SDS011;61354;50.758;6.106;2023-02-28T11:42:47;4.68;;;2.10;;
73150;SDS011;61354;50.758;6.106;2023-02-28T11:55:42;3.22;;;1.95;;
73150;SDS011;61354;50.758;6.106;2023-02-28T11:58:22;3.20;;;1.80;;
73150;SDS011;61354;50.758;6.106;2023-02-28T12:04:33;4.10;;;1.90;;
73150;SDS011;61354;50.758;6.106;2023-02-28T12:10:20;3.30;;;1.88;;
73150;SDS011;61354;50.758;6.106;2023-02-28T12:15:42;4.30;;;2.00;;
73150;SDS011;61354;50.758;6.106;2023-02-28T12:21:04;3.28;;;1.88;;
73150;SDS011;61354;50.758;6.106;2023-02-28T12:26:22;3.63;;;1.83;;
73150;SDS011;61354;50.758;6.106;2023-02-28T12:31:55;4.25;;;2.20;;
73150;SDS011;61354;50.758;6.106;2023-02-28T12:34:27;3.58;;;2.30;;
73150;SDS011;61354;50.758;6.106;2023-02-28T12:36:58;5.00;;;2.30;;
73150;SDS011;61354;50.758;6.106;2023-02-28T12:39:28;3.55;;;2.33;;
73150;SDS011;61354;50.758;6.106;2023-02-28T12:42:01;4.97;;;2.33;;
73150;SDS011;61354;50.758;6.106;2023-02-28T12:47:34;5.43;;;2.75;;
73150;SDS011;61354;50.758;6.106;2023-02-28T12:50:06;4.18;;;2.50;;
73150;SDS011;61354;50.758;6.106;2023-02-28T13:01:26;6.60;;;2.17;;
73150;SDS011;61354;50.758;6.106;2023-02-28T13:09:37;4.78;;;2.53;;
73150;SDS011;61354;50.758;6.106;2023-02-28T13:12:23;4.28;;;2.45;;
73150;SDS011;61354;50.758;6.106;2023-02-28T13:14:49;4.22;;;2.20;;
73150;SDS011;61354;50.758;6.106;2023-02-28T13:17:19;4.50;;;2.22;;
73150;SDS011;61354;50.758;6.106;2023-02-28T13:25:49;3.38;;;2.20;;
73150;SDS011;61354;50.758;6.106;2023-02-28T13:33:34;3.53;;;2.17;;
73150;SDS011;61354;50.758;6.106;2023-02-28T13:47:15;3.72;;;2.60;;
73150;SDS011;61354;50.758;6.106;2023-02-28T14:02:50;3.17;;;2.35;;
73150;SDS011;61354;50.758;6.106;2023-02-28T14:05:34;4.90;;;2.33;;
73150;SDS011;61354;50.758;6.106;2023-02-28T14:08:05;5.25;;;2.58;;
73150;SDS011;61354;50.758;6.106;2023-02-28T14:13:12;3.28;;;2.17;;
73150;SDS011;61354;50.758;6.106;2023-02-28T14:15:55;4.00;;;2.50;;
73150;SDS011;61354;50.758;6.106;2023-02-28T14:20:48;4.78;;;2.88;;
73150;SDS011;61354;50.758;6.106;2023-02-28T14:31:37;4.25;;;2.63;;
73150;SDS011;61354;50.758;6.106;2023-02-28T14:36:44;4.18;;;2.53;;
73150;SDS011;61354;50.758;6.106;2023-02-28T14:39:13;3.85;;;2.67;;
73150;SDS011;61354;50.758;6.106;2023-02-28T14:41:40;4.72;;;2.60;;
73150;SDS011;61354;50.758;6.106;2023-02-28T14:44:23;4.63;;;2.72;;
73150;SDS011;61354;50.758;6.106;2023-02-28T14:46:52;4.00;;;2.60;;
73150;SDS011;61354;50.758;6.106;2023-02-28T14:49:27;4.65;;;2.92;;
73150;SDS011;61354;50.758;6.106;2023-02-28T14:54:42;5.13;;;2.42;;
73150;SDS011;61354;50.758;6.106;2023-02-28T14:57:28;3.03;;;2.08;;
73150;SDS011;61354;50.758;6.106;2023-02-28T15:02:37;4.72;;;2.67;;
73150;SDS011;61354;50.758;6.106;2023-02-28T15:07:41;4.90;;;2.72;;
73150;SDS011;61354;50.758;6.106;2023-02-28T15:10:09;4.13;;;2.50;;
73150;SDS011;61354;50.758;6.106;2023-02-28T15:12:54;4.95;;;2.92;;
73150;SDS011;61354;50.758;6.106;2023-02-28T15:18:21;5.00;;;2.58;;
73150;SDS011;61354;50.758;6.106;2023-02-28T15:20:53;4.20;;;2.70;;
73150;SDS011;61354;50.758;6.106;2023-02-28T15:23:22;4.93;;;2.70;;
73150;SDS011;61354;50.758;6.106;2023-02-28T15:25:51;4.50;;;2.65;;
73150;SDS011;61354;50.758;6.106;2023-02-28T15:28:19;4.15;;;2.53;;
73150;SDS011;61354;50.758;6.106;2023-02-28T15:33:51;3.60;;;2.60;;
73150;SDS011;61354;50.758;6.106;2023-02-28T15:36:23;4.50;;;2.80;;
73150;SDS011;61354;50.758;6.106;2023-02-28T15:38:52;5.30;;;3.00;;
73150;SDS011;61354;50.758;6.106;2023-02-28T15:41:24;4.45;;;3.17;;
73150;SDS011;61354;50.758;6.106;2023-02-28T15:44:36;4.20;;;2.72;;
73150;SDS011;61354;50.758;6.106;2023-02-28T15:49:28;4.85;;;2.85;;
73150;SDS011;61354;50.758;6.106;2023-02-28T15:51:59;6.47;;;2.88;;
73150;SDS011;61354;50.758;6.106;2023-02-28T15:54:30;4.90;;;2.45;;
73150;SDS011;61354;50.758;6.106;2023-02-28T15:57:04;4.80;;;2.58;;
73150;SDS011;61354;50.758;6.106;2023-02-28T15:59:33;4.03;;;2.70;;
73150;SDS011;61354;50.758;6.106;2023-02-28T16:04:54;5.82;;;2.88;;
73150;SDS011;61354;50.758;6.106;2023-02-28T16:07:21;5.30;;;3.05;;
73150;SDS011;61354;50.758;6.106;2023-02-28T16:09:47;4.80;;;3.10;;
73150;SDS011;61354;50.758;6.106;2023-02-28T16:12:13;4.43;;;2.85;;
73150;SDS011;61354;50.758;6.106;2023-02-28T16:14:39;4.15;;;2.80;;
73150;SDS011;61354;50.758;6.106;2023-02-28T16:17:06;4.20;;;2.75;;
73150;SDS011;61354;50.758;6.106;2023-02-28T16:19:39;4.35;;;2.65;;
73150;SDS011;61354;50.758;6.106;2023-02-28T16:22:04;4.72;;;3.20;;
73150;SDS011;61354;50.758;6.106;2023-02-28T16:24:30;5.57;;;2.90;;
73150;SDS011;61354;50.758;6.106;2023-02-28T16:26:55;4.80;;;3.13;;
73150;SDS011;61354;50.758;6.106;2023-02-28T16:31:56;5.57;;;2.95;;
73150;SDS011;61354;50.758;6.106;2023-02-28T16:34:23;4.60;;;3.03;;
73150;SDS011;61354;50.758;6.106;2023-02-28T16:36:49;4.70;;;2.83;;
73150;SDS011;61354;50.758;6.106;2023-02-28T16:39:15;4.63;;;2.80;;
73150;SDS011;61354;50.758;6.106;2023-02-28T16:41:44;5.40;;;3.03;;
73150;SDS011;61354;50.758;6.106;2023-02-28T16:44:21;5.68;;;3.28;;
73150;SDS011;61354;50.758;6.106;2023-02-28T16:46:53;6.32;;;3.15;;
73150;SDS011;61354;50.758;6.106;2023-02-28T16:49:18;4.43;;;2.88;;
73150;SDS011;61354;50.758;6.106;2023-02-28T16:51:44;5.25;;;3.28;;
73150;SDS011;61354;50.758;6.106;2023-02-28T16:54:09;4.95;;;2.95;;
73150;SDS011;61354;50.758;6.106;2023-02-28T16:56:43;4.88;;;3.03;;
73150;SDS011;61354;50.758;6.106;2023-02-28T16:59:11;5.80;;;3.35;;
73150;SDS011;61354;50.758;6.106;2023-02-28T17:01:38;4.32;;;2.63;;
73150;SDS011;61354;50.758;6.106;2023-02-28T17:04:03;6.32;;;3.20;;
73150;SDS011;61354;50.758;6.106;2023-02-28T17:06:29;6.25;;;3.00;;
73150;SDS011;61354;50.758;6.106;2023-02-28T17:08:56;9.13;;;3.10;;
73150;SDS011;61354;50.758;6.106;2023-02-28T17:11:23;8.55;;;3.10;;
73150;SDS011;61354;50.758;6.106;2023-02-28T17:13:50;5.80;;;3.33;;
73150;SDS011;61354;50.758;6.106;2023-02-28T17:16:19;6.95;;;3.10;;
73150;SDS011;61354;50.758;6.106;2023-02-28T17:18:54;5.65;;;2.83;;
73150;SDS011;61354;50.758;6.106;2023-02-28T17:21:22;5.53;;;3.00;;
73150;SDS011;61354;50.758;6.106;2023-02-28T17:23:47;5.50;;;3.80;;
73150;SDS011;61354;50.758;6.106;2023-02-28T17:26:14;6.68;;;4.00;;
73150;SDS011;61354;50.758;6.106;2023-02-28T17:28:42;6.03;;;3.47;;
73150;SDS011;61354;50.758;6.106;2023-02-28T17:31:08;7.05;;;3.90;;
73150;SDS011;61354;50.758;6.106;2023-02-28T17:33:34;7.47;;;4.53;;
73150;SDS011;61354;50.758;6.106;2023-02-28T17:36:00;9.80;;;5.50;;
73150;SDS011;61354;50.758;6.106;2023-02-28T17:38:26;8.50;;;4.90;;
73150;SDS011;61354;50.758;6.106;2023-02-28T17:40:52;6.88;;;3.92;;
73150;SDS011;61354;50.758;6.106;2023-02-28T17:43:23;8.45;;;4.05;;
73150;SDS011;61354;50.758;6.106;2023-02-28T17:45:49;8.07;;;4.20;;
73150;SDS011;61354;50.758;6.106;2023-02-28T17:48:15;6.65;;;4.40;;
73150;SDS011;61354;50.758;6.106;2023-02-28T17:50:42;7.47;;;4.60;;
73150;SDS011;61354;50.758;6.106;2023-02-28T17:53:07;7.68;;;4.18;;
73150;SDS011;61354;50.758;6.106;2023-02-28T17:55:34;7.32;;;4.22;;
73150;SDS011;61354;50.758;6.106;2023-02-28T17:58:00;8.32;;;5.10;;
73150;SDS011;61354;50.758;6.106;2023-02-28T18:00:26;8.05;;;5.50;;
73150;SDS011;61354;50.758;6.106;2023-02-28T18:02:51;9.82;;;5.50;;
73150;SDS011;61354;50.758;6.106;2023-02-28T18:05:17;10.05;;;6.00;;
73150;SDS011;61354;50.758;6.106;2023-02-28T18:07:43;14.68;;;7.65;;
73150;SDS011;61354;50.758;6.106;2023-02-28T18:10:16;20.25;;;11.27;;
73150;SDS011;61354;50.758;6.106;2023-02-28T18:12:48;11.63;;;6.03;;
73150;SDS011;61354;50.758;6.106;2023-02-28T18:15:15;7.63;;;4.82;;
73150;SDS011;61354;50.758;6.106;2023-02-28T18:17:41;6.60;;;4.20;;
73150;SDS011;61354;50.758;6.106;2023-02-28T18:20:08;7.80;;;4.30;;
73150;SDS011;61354;50.758;6.106;2023-02-28T18:22:35;5.65;;;3.78;;
73150;SDS011;61354;50.758;6.106;2023-02-28T18:25:02;7.68;;;4.40;;
73150;SDS011;61354;50.758;6.106;2023-02-28T18:27:29;6.43;;;4.30;;
73150;SDS011;61354;50.758;6.106;2023-02-28T18:29:55;6.75;;;4.22;;